Marietje Marsilla — PCIE — position and weather

sailwx.info

Track history (hours):
 
Tides and Currents Weather Stations Pressure Air Temp Water Temp Dewpoint Dewpoint Depression Visibility Wind Speed Wind Dir Waves Ship Positions

Marietje Marsilla

Last reported at 2018-Apr-22 21:19 UTC. Time now 2018-Apr-24 10:50 UTC.
Position N 52°35' W 009°41'.

Length 126 m; draft 4.7 m.

Type: Cargo ship. MMSI: 246754000.

Date/timePositionNaut miles runAvg speedWind from/ knotsBaromVisibWave heightAir tempDewpointWater temp
2018-Apr-22 21:19N 52°35' W 009°41'513.1
2018-Apr-22 20:58N 52°33' W 009°48'612.7
2018-Apr-22 20:28N 52°29' W 009°56'612.6
2018-Apr-22 20:00N 52°26' W 010°04'712.8
2018-Apr-22 19:29N 52°22' W 010°13'612.8
2018-Apr-22 19:00N 52°18' W 010°22'612.6
2018-Apr-22 18:29N 52°14' W 010°30'612.4
2018-Apr-22 17:59N 52°10' W 010°38'3610.2
2018-Apr-22 14:26N 51°35' W 010°27'1124.5
2018-Apr-22 13:59N 51°28' W 010°14'3 5.2
2018-Apr-22 13:29N 51°27' W 010°10'2 4.7
2018-Apr-22 13:01N 51°26' W 010°07'611.2
2018-Apr-22 12:31N 51°23' W 009°59'611.3
2018-Apr-22 12:01N 51°21' W 009°50'611.2
2018-Apr-22 11:31N 51°18' W 009°43'610.9
2018-Apr-22 11:00N 51°16' W 009°35'611.3
2018-Apr-22 10:30N 51°13' W 009°27'511.0
2018-Apr-22 10:01N 51°11' W 009°19'611.0
2018-Apr-22 09:30N 51°08' W 009°11'510.9
2018-Apr-22 09:01N 51°06' W 009°03'7411.1
2018-Apr-22 02:20N 50°32' W 007°20'411.7
2018-Apr-22 02:00N 50°30' W 007°14'1511.7
2018-Apr-22 00:44N 50°23' W 006°53'911.6
2018-Apr-21 23:55N 50°19' W 006°40'511.6
2018-Apr-21 23:31N 50°17' W 006°33'1211.4
2018-Apr-21 22:29N 50°12' W 006°17'511.2
2018-Apr-21 22:01N 50°09' W 006°10'611.1
2018-Apr-21 21:27N 50°07' W 006°01'910.5
2018-Apr-21 20:37N 50°00' W 005°51'1711.3
2018-Apr-21 19:08N 49°57' W 005°26'3211.9
2018-Apr-21 16:28N 49°59' W 004°37'713.2
2018-Apr-21 15:54N 50°01' W 004°25'513.3
2018-Apr-21 15:30N 50°02' W 004°17'713.2
2018-Apr-21 14:59N 50°03' W 004°07'713.3
2018-Apr-21 14:29N 50°04' W 003°56'913.1
2018-Apr-21 13:49N 50°05' W 003°43'412.7
2018-Apr-21 13:30N 50°05' W 003°37'612.4
2018-Apr-21 13:00N 50°06' W 003°27'612.0
2018-Apr-21 12:31N 50°07' W 003°18'612.0
2018-Apr-21 12:00N 50°08' W 003°09'611.7
2018-Apr-21 11:30N 50°10' W 002°60'611.4
2018-Apr-21 11:00N 50°11' W 002°51'611.3
2018-Apr-21 10:29N 50°12' W 002°42'1311.5
2018-Apr-21 09:24N 50°14' W 002°23'1512.4
2018-Apr-21 08:11N 50°17' W 001°60'213.4
2018-Apr-21 08:00N 50°17' W 001°56'713.9
2018-Apr-21 07:31N 50°19' W 001°45'714.6
2018-Apr-21 07:00N 50°20' W 001°34'815.5
2018-Apr-21 06:30N 50°22' W 001°22'815.9
2018-Apr-21 06:00N 50°23' W 001°10'815.9
2018-Apr-21 05:31N 50°24' W 000°58'815.9
2018-Apr-21 05:01N 50°26' W 000°45'815.1
2018-Apr-21 04:28N 50°27' W 000°33'714.7
2018-Apr-21 04:00N 50°29' W 000°22'714.1
2018-Apr-21 03:31N 50°30' W 000°12'713.5
2018-Apr-21 03:00N 50°31' W 000°01'613.0
2018-Apr-21 02:31N 50°33' E 000°09'612.5
2018-Apr-21 02:00N 50°35' E 000°18'711.9
2018-Apr-21 01:26N 50°37' E 000°28'511.6
2018-Apr-21 01:00N 50°39' E 000°36'611.5
2018-Apr-21 00:31N 50°42' E 000°43'611.8
2018-Apr-21 00:01N 50°46' E 000°50'712.4
2018-Apr-20 23:27N 50°50' E 000°59'613.2
2018-Apr-20 23:00N 50°53' E 001°07'814.3
2018-Apr-20 22:29N 50°58' E 001°16'815.6
2018-Apr-20 21:58N 51°03' E 001°26'716.1
2018-Apr-20 21:31N 51°08' E 001°35'815.4
2018-Apr-20 21:00N 51°13' E 001°44'714.5
2018-Apr-20 20:30N 51°18' E 001°52'713.6
2018-Apr-20 20:00N 51°24' E 001°59'612.3
2018-Apr-20 19:30N 51°23' E 002°08'713.2
2018-Apr-20 19:00N 51°21' E 002°19'612.8
2018-Apr-20 18:30N 51°22' E 002°29'612.7
2018-Apr-20 18:00N 51°22' E 002°39'611.7
2018-Apr-20 17:30N 51°22' E 002°48'611.6
2018-Apr-20 17:00N 51°23' E 002°57'611.1
2018-Apr-20 16:30N 51°24' E 003°06'611.4
2018-Apr-20 16:00N 51°25' E 003°15'510.7
2018-Apr-20 15:30N 51°25' E 003°24'510.2
2018-Apr-20 15:00N 51°25' E 003°32'5 9.7
2018-Apr-20 14:30N 51°27' E 003°40'2 3.1
2018-Apr-20 13:58N 51°28' E 003°41'0 0.0
2018-Apr-20 13:25N 51°28' E 003°41'0 0.0
2018-Apr-20 12:52N 51°28' E 003°41'0 0.0
2018-Apr-20 12:22N 51°28' E 003°41'0 0.0
2018-Apr-20 11:49N 51°28' E 003°41'0 0.0
2018-Apr-20 11:25N 51°28' E 003°41'0 0.0
2018-Apr-20 10:49N 51°28' E 003°41'0 0.0
2018-Apr-20 10:28N 51°28' E 003°41'0 0.0
2018-Apr-20 09:58N 51°28' E 003°41'0 0.0
2018-Apr-20 09:25N 51°28' E 003°41'0 0.0
2018-Apr-20 08:52N 51°28' E 003°41'0 0.0
2018-Apr-20 08:25N 51°28' E 003°41'0 0.0
2018-Apr-20 07:58N 51°28' E 003°41'0 0.0
2018-Apr-20 07:16N 51°28' E 003°41'0 0.0
2018-Apr-20 06:22N 51°28' E 003°41'0 0.0
2018-Apr-20 05:55N 51°28' E 003°41'0 0.0
2018-Apr-20 05:28N 51°28' E 003°41'0 0.0
2018-Apr-20 04:55N 51°28' E 003°41'0 0.0
2018-Apr-20 04:28N 51°28' E 003°41'0 0.0
2018-Apr-20 03:52N 51°28' E 003°41'0 0.0
2018-Apr-20 03:25N 51°28' E 003°41'0 0.0
2018-Apr-20 02:58N 51°28' E 003°41'0 0.0
2018-Apr-20 02:28N 51°28' E 003°41'0 0.0
2018-Apr-20 01:49N 51°28' E 003°41'0 0.0
2018-Apr-20 01:25N 51°28' E 003°41'0 0.0
2018-Apr-20 00:55N 51°28' E 003°41'0 0.0
2018-Apr-20 00:25N 51°28' E 003°41'0 0.0
2018-Apr-19 23:58N 51°28' E 003°41'0 0.0
2018-Apr-19 23:19N 51°28' E 003°41'0 0.0
2018-Apr-19 22:49N 51°28' E 003°41'0 0.0
2018-Apr-19 22:19N 51°28' E 003°41'0 0.0
2018-Apr-19 21:52N 51°28' E 003°41'0 0.0
2018-Apr-19 21:22N 51°28' E 003°41'0 0.0
2018-Apr-19 20:55N 51°28' E 003°41'0 0.0
2018-Apr-19 20:28N 51°28' E 003°41'0 0.0
2018-Apr-19 19:55N 51°28' E 003°41'0 0.0
2018-Apr-19 19:16N 51°28' E 003°41'0 0.0
2018-Apr-19 18:43N 51°28' E 003°41'0 0.0
2018-Apr-19 18:19N 51°28' E 003°41'0 0.0
2018-Apr-19 17:43N 51°28' E 003°41'0 0.0
2018-Apr-19 16:58N 51°28' E 003°41'0 0.0
2018-Apr-19 16:13N 51°28' E 003°41'0 0.1
2018-Apr-19 15:59N 51°28' E 003°41'4 8.3
2018-Apr-19 15:30N 51°26' E 003°36'611.7
2018-Apr-19 15:00N 51°30' E 003°29'1513.1
2018-Apr-19 13:52N 51°43' E 003°16'411.9
2018-Apr-19 13:30N 51°47' E 003°16'813.9
2018-Apr-19 12:57N 51°55' E 003°19'4014.4
2018-Apr-19 10:12N 52°32' E 003°41'814.7
2018-Apr-19 09:41N 52°38' E 003°47'714.3
2018-Apr-19 09:14N 52°44' E 003°52'413.5
2018-Apr-19 08:55N 52°48' E 003°55'511.3
2018-Apr-19 08:26N 52°53' E 003°58'610.6
2018-Apr-19 07:55N 52°58' E 004°02'410.5
2018-Apr-19 07:30N 53°01' E 004°07'610.3
2018-Apr-19 06:58N 53°05' E 004°14'510.1
2018-Apr-19 06:30N 53°08' E 004°19'5 9.7
2018-Apr-19 06:00N 53°12' E 004°24'5 9.8
2018-Apr-19 05:30N 53°16' E 004°28'510.2
2018-Apr-19 05:00N 53°21' E 004°32'510.8
2018-Apr-19 04:30N 53°26' E 004°37'611.3
2018-Apr-19 04:00N 53°29' E 004°45'612.7
2018-Apr-19 03:30N 53°31' E 004°54'613.0
2018-Apr-19 03:00N 53°33' E 005°05'612.8
2018-Apr-19 02:30N 53°36' E 005°15'612.8
2018-Apr-19 02:00N 53°38' E 005°25'9710.7
2018-Apr-18 17:00N 53°49' E 008°07'815.9
2018-Apr-18 16:30N 53°43' E 008°17'815.7
2018-Apr-18 16:00N 53°38' E 008°27'714.6
2018-Apr-18 15:31N 53°32' E 008°34'510.4
2018-Apr-18 15:00N 53°28' E 008°30'612.3
2018-Apr-18 14:31N 53°22' E 008°30'4 8.5
2018-Apr-18 13:59N 53°17' E 008°29'510.0
2018-Apr-18 13:31N 53°12' E 008°30'4 7.5
2018-Apr-18 13:00N 53°10' E 008°35'4 7.8
2018-Apr-18 12:30N 53°08' E 008°40'3 6.0
2018-Apr-18 12:00N 53°06' E 008°44'0 0.0
2018-Apr-18 11:28N 53°06' E 008°44'0 0.0
2018-Apr-18 11:01N 53°06' E 008°44'0 0.0
2018-Apr-18 10:28N 53°06' E 008°44'0 0.0
2018-Apr-18 09:58N 53°06' E 008°44'0 0.0
2018-Apr-18 09:31N 53°06' E 008°44'0 0.0
2018-Apr-18 09:01N 53°06' E 008°44'0 0.0
2018-Apr-18 08:28N 53°06' E 008°44'0 0.0
2018-Apr-18 07:58N 53°06' E 008°44'0 0.0
2018-Apr-18 07:31N 53°06' E 008°44'0 0.0
2018-Apr-18 06:58N 53°06' E 008°44'0 0.0
2018-Apr-18 06:31N 53°06' E 008°44'0 0.0
2018-Apr-18 06:01N 53°06' E 008°44'0 0.0
2018-Apr-18 05:31N 53°06' E 008°44'0 0.0
2018-Apr-18 05:01N 53°06' E 008°44'0 0.0
2018-Apr-18 04:31N 53°06' E 008°44'0 0.0
2018-Apr-18 03:58N 53°06' E 008°44'0 0.0
2018-Apr-18 03:31N 53°06' E 008°44'0 0.0
2018-Apr-18 03:01N 53°06' E 008°44'0 0.0
2018-Apr-18 02:31N 53°06' E 008°44'0 0.0
2018-Apr-18 02:01N 53°06' E 008°44'0 0.0
2018-Apr-18 01:31N 53°06' E 008°44'0 0.0
2018-Apr-18 01:01N 53°06' E 008°44'0 0.0
2018-Apr-18 00:31N 53°06' E 008°44'0 0.0
2018-Apr-18 00:01N 53°06' E 008°44'0 0.0
2018-Apr-17 23:31N 53°06' E 008°44'0 0.0
2018-Apr-17 23:01N 53°06' E 008°44'0 0.0
2018-Apr-17 22:31N 53°06' E 008°44'0 0.0
2018-Apr-17 22:01N 53°06' E 008°44'0 0.0
2018-Apr-17 21:31N 53°06' E 008°44'0 0.0
2018-Apr-17 21:01N 53°06' E 008°44'0 0.0
2018-Apr-17 20:31N 53°06' E 008°44'0 0.0
2018-Apr-17 20:01N 53°06' E 008°44'0 0.0
2018-Apr-17 19:31N 53°06' E 008°44'0 0.0
2018-Apr-17 19:01N 53°06' E 008°44'0 0.0
2018-Apr-17 18:31N 53°06' E 008°44'0 0.0
2018-Apr-17 18:01N 53°06' E 008°44'0 0.0
2018-Apr-17 17:31N 53°06' E 008°44'0 0.0
2018-Apr-17 17:01N 53°06' E 008°44'0 0.0
2018-Apr-17 16:31N 53°06' E 008°44'0 0.0
2018-Apr-17 16:01N 53°06' E 008°44'0 0.0
2018-Apr-17 15:31N 53°06' E 008°44'0 0.0
2018-Apr-17 15:01N 53°06' E 008°44'0 0.0
2018-Apr-17 14:31N 53°06' E 008°44'0 0.0
2018-Apr-17 14:01N 53°06' E 008°44'0 0.0
2018-Apr-17 13:31N 53°06' E 008°44'0 0.0
2018-Apr-17 13:01N 53°06' E 008°44'0 0.0
2018-Apr-17 12:31N 53°06' E 008°44'0 0.0
2018-Apr-17 12:01N 53°06' E 008°44'0 0.0
2018-Apr-17 11:31N 53°06' E 008°44'0 0.0
2018-Apr-17 11:00N 53°06' E 008°44'1 2.2
2018-Apr-17 10:30N 53°07' E 008°43'5 9.0
2018-Apr-17 10:00N 53°10' E 008°37'4 8.1
2018-Apr-17 09:30N 53°12' E 008°31'5 9.4
2018-Apr-17 09:00N 53°16' E 008°29'5 9.5
2018-Apr-17 08:30N 53°21' E 008°30'510.2
2018-Apr-17 08:00N 53°26' E 008°30'510.4
2018-Apr-17 07:30N 53°31' E 008°32'3 5.7
2018-Apr-17 07:00N 53°34' E 008°33'510.0
2018-Apr-17 06:30N 53°38' E 008°27'510.6
2018-Apr-17 06:00N 53°41' E 008°21'611.0
2018-Apr-17 05:30N 53°45' E 008°13'510.9
2018-Apr-17 05:00N 53°49' E 008°07'611.3
2018-Apr-17 04:30N 53°51' E 007°59'4 7.6
2018-Apr-17 03:58N 53°55' E 007°55'613.2
2018-Apr-17 03:31N 53°58' E 008°04'713.4
2018-Apr-17 03:00N 53°59' E 008°15'815.0
2018-Apr-17 02:29N 53°59' E 008°28'714.4
2018-Apr-17 02:01N 53°56' E 008°39'612.7
2018-Apr-17 01:30N 53°51' E 008°46'510.9
2018-Apr-17 01:00N 53°51' E 008°55'511.0
2018-Apr-17 00:30N 53°52' E 009°04'3 6.6
2018-Apr-17 00:00N 53°54' E 009°09'0 0.0
2018-Apr-16 23:30N 53°54' E 009°09'1 1.7
2018-Apr-16 23:00N 53°54' E 009°10'3 6.5
2018-Apr-16 22:30N 53°57' E 009°14'4 8.1
2018-Apr-16 22:00N 54°00' E 009°18'4 7.2
2018-Apr-16 21:30N 54°04' E 009°19'4 8.1
2018-Apr-16 21:00N 54°08' E 009°20'3 6.5
2018-Apr-16 20:31N 54°10' E 009°24'4 7.6
2018-Apr-16 20:01N 54°11' E 009°30'4 7.4
2018-Apr-16 19:31N 54°13' E 009°35'4 7.8
2018-Apr-16 19:01N 54°17' E 009°38'4 7.1
2018-Apr-16 18:31N 54°19' E 009°43'4 8.0
2018-Apr-16 18:00N 54°22' E 009°47'21 5.9
2018-Apr-16 14:31N 54°30' E 010°20'712.9
2018-Apr-16 14:00N 54°32' E 010°30'612.7
2018-Apr-16 13:31N 54°33' E 010°41'612.7
2018-Apr-16 13:01N 54°33' E 010°52'712.6
2018-Apr-16 12:28N 54°34' E 011°04'613.1
2018-Apr-16 12:00N 54°33' E 011°14'612.6
2018-Apr-16 11:30N 54°31' E 011°24'611.9
2018-Apr-16 11:00N 54°30' E 011°34'612.8
2018-Apr-16 10:31N 54°28' E 011°45'912.6
2018-Apr-16 09:49N 54°27' E 011°60'412.6
2018-Apr-16 09:30N 54°27' E 012°06'611.5
2018-Apr-16 09:00N 54°32' E 012°12'612.2
2018-Apr-16 08:30N 54°37' E 012°17'5812.8
2018-Apr-16 03:59N 55°02' E 013°48'1012.9
2018-Apr-16 03:11N 55°06' E 014°04'513.0
2018-Apr-16 02:46N 55°10' E 014°11'613.1
2018-Apr-16 02:21N 55°13' E 014°18'513.1
2018-Apr-16 01:57N 55°17' E 014°24'613.4
2018-Apr-16 01:30N 55°22' E 014°31'713.2
2018-Apr-16 01:00N 55°26' E 014°39'612.9
2018-Apr-16 00:31N 55°30' E 014°49'612.9
2018-Apr-16 00:01N 55°33' E 014°59'712.9
2018-Apr-15 23:30N 55°36' E 015°09'612.9
2018-Apr-15 23:01N 55°40' E 015°18'612.8
2018-Apr-15 22:30N 55°43' E 015°28'713.0
2018-Apr-15 22:00N 55°47' E 015°38'713.1
2018-Apr-15 21:30N 55°50' E 015°47'713.1
2018-Apr-15 21:01N 55°54' E 015°57'713.2
2018-Apr-15 20:31N 55°57' E 016°07'713.1
2018-Apr-15 20:01N 56°01' E 016°17'713.1
2018-Apr-15 19:31N 56°04' E 016°27'713.0
2018-Apr-15 19:01N 56°08' E 016°37'2712.7
2018-Apr-15 16:51N 56°32' E 016°60'20612.6
2018-Apr-15 00:28N 59°35' E 019°58'612.8
2018-Apr-15 00:00N 59°40' E 019°52'612.8
2018-Apr-14 23:30N 59°45' E 019°44'613.0
2018-Apr-14 23:01N 59°50' E 019°35'713.0
2018-Apr-14 22:30N 59°55' E 019°27'713.0
2018-Apr-14 22:00N 60°00' E 019°19'612.8
2018-Apr-14 21:31N 60°05' E 019°11'712.9
2018-Apr-14 21:00N 60°10' E 019°03'612.5
2018-Apr-14 20:31N 60°16' E 019°01'612.6
2018-Apr-14 20:00N 60°23' E 018°59'612.3
2018-Apr-14 19:30N 60°29' E 018°59'  
Track history (hours):
 
Tides and Currents Weather Stations Pressure Air Temp Water Temp Dewpoint Dewpoint Depression Visibility Wind Speed Wind Dir Waves Ship Positions

Marietje Marsilla

Last reported at 2018-Apr-22 21:19 UTC. Time now 2018-Apr-24 10:50 UTC.
Position N 52°35' W 009°41'.

Length 126 m; draft 4.7 m.

Type: Cargo ship. MMSI: 246754000.

Date/timePositionNaut miles runAvg speedWind from/ knotsBaromVisibWave heightAir tempDewpointWater temp
2018-Apr-22 21:19N 52°35' W 009°41'513.1
2018-Apr-22 20:58N 52°33' W 009°48'612.7
2018-Apr-22 20:28N 52°29' W 009°56'612.6
2018-Apr-22 20:00N 52°26' W 010°04'712.8
2018-Apr-22 19:29N 52°22' W 010°13'612.8
2018-Apr-22 19:00N 52°18' W 010°22'612.6
2018-Apr-22 18:29N 52°14' W 010°30'612.4
2018-Apr-22 17:59N 52°10' W 010°38'3610.2
2018-Apr-22 14:26N 51°35' W 010°27'1124.5
2018-Apr-22 13:59N 51°28' W 010°14'3 5.2
2018-Apr-22 13:29N 51°27' W 010°10'2 4.7
2018-Apr-22 13:01N 51°26' W 010°07'611.2
2018-Apr-22 12:31N 51°23' W 009°59'611.3
2018-Apr-22 12:01N 51°21' W 009°50'611.2
2018-Apr-22 11:31N 51°18' W 009°43'610.9
2018-Apr-22 11:00N 51°16' W 009°35'611.3
2018-Apr-22 10:30N 51°13' W 009°27'511.0
2018-Apr-22 10:01N 51°11' W 009°19'611.0
2018-Apr-22 09:30N 51°08' W 009°11'510.9
2018-Apr-22 09:01N 51°06' W 009°03'7411.1
2018-Apr-22 02:20N 50°32' W 007°20'411.7
2018-Apr-22 02:00N 50°30' W 007°14'1511.7
2018-Apr-22 00:44N 50°23' W 006°53'911.6
2018-Apr-21 23:55N 50°19' W 006°40'511.6
2018-Apr-21 23:31N 50°17' W 006°33'1211.4
2018-Apr-21 22:29N 50°12' W 006°17'511.2
2018-Apr-21 22:01N 50°09' W 006°10'611.1
2018-Apr-21 21:27N 50°07' W 006°01'910.5
2018-Apr-21 20:37N 50°00' W 005°51'1711.3
2018-Apr-21 19:08N 49°57' W 005°26'3211.9
2018-Apr-21 16:28N 49°59' W 004°37'713.2
2018-Apr-21 15:54N 50°01' W 004°25'513.3
2018-Apr-21 15:30N 50°02' W 004°17'713.2
2018-Apr-21 14:59N 50°03' W 004°07'713.3
2018-Apr-21 14:29N 50°04' W 003°56'913.1
2018-Apr-21 13:49N 50°05' W 003°43'412.7
2018-Apr-21 13:30N 50°05' W 003°37'612.4
2018-Apr-21 13:00N 50°06' W 003°27'612.0
2018-Apr-21 12:31N 50°07' W 003°18'612.0
2018-Apr-21 12:00N 50°08' W 003°09'611.7
2018-Apr-21 11:30N 50°10' W 002°60'611.4
2018-Apr-21 11:00N 50°11' W 002°51'611.3
2018-Apr-21 10:29N 50°12' W 002°42'1311.5
2018-Apr-21 09:24N 50°14' W 002°23'1512.4
2018-Apr-21 08:11N 50°17' W 001°60'213.4
2018-Apr-21 08:00N 50°17' W 001°56'713.9
2018-Apr-21 07:31N 50°19' W 001°45'714.6
2018-Apr-21 07:00N 50°20' W 001°34'815.5
2018-Apr-21 06:30N 50°22' W 001°22'815.9
2018-Apr-21 06:00N 50°23' W 001°10'815.9
2018-Apr-21 05:31N 50°24' W 000°58'815.9
2018-Apr-21 05:01N 50°26' W 000°45'815.1
2018-Apr-21 04:28N 50°27' W 000°33'714.7
2018-Apr-21 04:00N 50°29' W 000°22'714.1
2018-Apr-21 03:31N 50°30' W 000°12'713.5
2018-Apr-21 03:00N 50°31' W 000°01'613.0
2018-Apr-21 02:31N 50°33' E 000°09'612.5
2018-Apr-21 02:00N 50°35' E 000°18'711.9
2018-Apr-21 01:26N 50°37' E 000°28'511.6
2018-Apr-21 01:00N 50°39' E 000°36'611.5
2018-Apr-21 00:31N 50°42' E 000°43'611.8
2018-Apr-21 00:01N 50°46' E 000°50'712.4
2018-Apr-20 23:27N 50°50' E 000°59'613.2
2018-Apr-20 23:00N 50°53' E 001°07'814.3
2018-Apr-20 22:29N 50°58' E 001°16'815.6
2018-Apr-20 21:58N 51°03' E 001°26'716.1
2018-Apr-20 21:31N 51°08' E 001°35'815.4
2018-Apr-20 21:00N 51°13' E 001°44'714.5
2018-Apr-20 20:30N 51°18' E 001°52'713.6
2018-Apr-20 20:00N 51°24' E 001°59'612.3
2018-Apr-20 19:30N 51°23' E 002°08'713.2
2018-Apr-20 19:00N 51°21' E 002°19'612.8
2018-Apr-20 18:30N 51°22' E 002°29'612.7
2018-Apr-20 18:00N 51°22' E 002°39'611.7
2018-Apr-20 17:30N 51°22' E 002°48'611.6
2018-Apr-20 17:00N 51°23' E 002°57'611.1
2018-Apr-20 16:30N 51°24' E 003°06'611.4
2018-Apr-20 16:00N 51°25' E 003°15'510.7
2018-Apr-20 15:30N 51°25' E 003°24'510.2
2018-Apr-20 15:00N 51°25' E 003°32'5 9.7
2018-Apr-20 14:30N 51°27' E 003°40'2 3.1
2018-Apr-20 13:58N 51°28' E 003°41'0 0.0
2018-Apr-20 13:25N 51°28' E 003°41'0 0.0
2018-Apr-20 12:52N 51°28' E 003°41'0 0.0
2018-Apr-20 12:22N 51°28' E 003°41'0 0.0
2018-Apr-20 11:49N 51°28' E 003°41'0 0.0
2018-Apr-20 11:25N 51°28' E 003°41'0 0.0
2018-Apr-20 10:49N 51°28' E 003°41'0 0.0
2018-Apr-20 10:28N 51°28' E 003°41'0 0.0
2018-Apr-20 09:58N 51°28' E 003°41'0 0.0
2018-Apr-20 09:25N 51°28' E 003°41'0 0.0
2018-Apr-20 08:52N 51°28' E 003°41'0 0.0
2018-Apr-20 08:25N 51°28' E 003°41'0 0.0
2018-Apr-20 07:58N 51°28' E 003°41'0 0.0
2018-Apr-20 07:16N 51°28' E 003°41'0 0.0
2018-Apr-20 06:22N 51°28' E 003°41'0 0.0
2018-Apr-20 05:55N 51°28' E 003°41'0 0.0
2018-Apr-20 05:28N 51°28' E 003°41'0 0.0
2018-Apr-20 04:55N 51°28' E 003°41'0 0.0
2018-Apr-20 04:28N 51°28' E 003°41'0 0.0
2018-Apr-20 03:52N 51°28' E 003°41'0 0.0
2018-Apr-20 03:25N 51°28' E 003°41'0 0.0
2018-Apr-20 02:58N 51°28' E 003°41'0 0.0
2018-Apr-20 02:28N 51°28' E 003°41'0 0.0
2018-Apr-20 01:49N 51°28' E 003°41'0 0.0
2018-Apr-20 01:25N 51°28' E 003°41'0 0.0
2018-Apr-20 00:55N 51°28' E 003°41'0 0.0
2018-Apr-20 00:25N 51°28' E 003°41'0 0.0
2018-Apr-19 23:58N 51°28' E 003°41'0 0.0
2018-Apr-19 23:19N 51°28' E 003°41'0 0.0
2018-Apr-19 22:49N 51°28' E 003°41'0 0.0
2018-Apr-19 22:19N 51°28' E 003°41'0 0.0
2018-Apr-19 21:52N 51°28' E 003°41'0 0.0
2018-Apr-19 21:22N 51°28' E 003°41'0 0.0
2018-Apr-19 20:55N 51°28' E 003°41'0 0.0
2018-Apr-19 20:28N 51°28' E 003°41'0 0.0
2018-Apr-19 19:55N 51°28' E 003°41'0 0.0
2018-Apr-19 19:16N 51°28' E 003°41'0 0.0
2018-Apr-19 18:43N 51°28' E 003°41'0 0.0
2018-Apr-19 18:19N 51°28' E 003°41'0 0.0
2018-Apr-19 17:43N 51°28' E 003°41'0 0.0
2018-Apr-19 16:58N 51°28' E 003°41'0 0.0
2018-Apr-19 16:13N 51°28' E 003°41'0 0.1
2018-Apr-19 15:59N 51°28' E 003°41'4 8.3
2018-Apr-19 15:30N 51°26' E 003°36'611.7
2018-Apr-19 15:00N 51°30' E 003°29'1513.1
2018-Apr-19 13:52N 51°43' E 003°16'411.9
2018-Apr-19 13:30N 51°47' E 003°16'813.9
2018-Apr-19 12:57N 51°55' E 003°19'4014.4
2018-Apr-19 10:12N 52°32' E 003°41'814.7
2018-Apr-19 09:41N 52°38' E 003°47'714.3
2018-Apr-19 09:14N 52°44' E 003°52'413.5
2018-Apr-19 08:55N 52°48' E 003°55'511.3
2018-Apr-19 08:26N 52°53' E 003°58'610.6
2018-Apr-19 07:55N 52°58' E 004°02'410.5
2018-Apr-19 07:30N 53°01' E 004°07'610.3
2018-Apr-19 06:58N 53°05' E 004°14'510.1
2018-Apr-19 06:30N 53°08' E 004°19'5 9.7
2018-Apr-19 06:00N 53°12' E 004°24'5 9.8
2018-Apr-19 05:30N 53°16' E 004°28'510.2
2018-Apr-19 05:00N 53°21' E 004°32'510.8
2018-Apr-19 04:30N 53°26' E 004°37'611.3
2018-Apr-19 04:00N 53°29' E 004°45'612.7
2018-Apr-19 03:30N 53°31' E 004°54'613.0
2018-Apr-19 03:00N 53°33' E 005°05'612.8
2018-Apr-19 02:30N 53°36' E 005°15'612.8
2018-Apr-19 02:00N 53°38' E 005°25'9710.7
2018-Apr-18 17:00N 53°49' E 008°07'815.9
2018-Apr-18 16:30N 53°43' E 008°17'815.7
2018-Apr-18 16:00N 53°38' E 008°27'714.6
2018-Apr-18 15:31N 53°32' E 008°34'510.4
2018-Apr-18 15:00N 53°28' E 008°30'612.3
2018-Apr-18 14:31N 53°22' E 008°30'4 8.5
2018-Apr-18 13:59N 53°17' E 008°29'510.0
2018-Apr-18 13:31N 53°12' E 008°30'4 7.5
2018-Apr-18 13:00N 53°10' E 008°35'4 7.8
2018-Apr-18 12:30N 53°08' E 008°40'3 6.0
2018-Apr-18 12:00N 53°06' E 008°44'0 0.0
2018-Apr-18 11:28N 53°06' E 008°44'0 0.0
2018-Apr-18 11:01N 53°06' E 008°44'0 0.0
2018-Apr-18 10:28N 53°06' E 008°44'0 0.0
2018-Apr-18 09:58N 53°06' E 008°44'0 0.0
2018-Apr-18 09:31N 53°06' E 008°44'0 0.0
2018-Apr-18 09:01N 53°06' E 008°44'0 0.0
2018-Apr-18 08:28N 53°06' E 008°44'0 0.0
2018-Apr-18 07:58N 53°06' E 008°44'0 0.0
2018-Apr-18 07:31N 53°06' E 008°44'0 0.0
2018-Apr-18 06:58N 53°06' E 008°44'0 0.0
2018-Apr-18 06:31N 53°06' E 008°44'0 0.0
2018-Apr-18 06:01N 53°06' E 008°44'0 0.0
2018-Apr-18 05:31N 53°06' E 008°44'0 0.0
2018-Apr-18 05:01N 53°06' E 008°44'0 0.0
2018-Apr-18 04:31N 53°06' E 008°44'0 0.0
2018-Apr-18 03:58N 53°06' E 008°44'0 0.0
2018-Apr-18 03:31N 53°06' E 008°44'0 0.0
2018-Apr-18 03:01N 53°06' E 008°44'0 0.0
2018-Apr-18 02:31N 53°06' E 008°44'0 0.0
2018-Apr-18 02:01N 53°06' E 008°44'0 0.0
2018-Apr-18 01:31N 53°06' E 008°44'0 0.0
2018-Apr-18 01:01N 53°06' E 008°44'0 0.0
2018-Apr-18 00:31N 53°06' E 008°44'0 0.0
2018-Apr-18 00:01N 53°06' E 008°44'0 0.0
2018-Apr-17 23:31N 53°06' E 008°44'0 0.0
2018-Apr-17 23:01N 53°06' E 008°44'0 0.0
2018-Apr-17 22:31N 53°06' E 008°44'0 0.0
2018-Apr-17 22:01N 53°06' E 008°44'0 0.0
2018-Apr-17 21:31N 53°06' E 008°44'0 0.0
2018-Apr-17 21:01N 53°06' E 008°44'0 0.0
2018-Apr-17 20:31N 53°06' E 008°44'0 0.0
2018-Apr-17 20:01N 53°06' E 008°44'0 0.0
2018-Apr-17 19:31N 53°06' E 008°44'0 0.0
2018-Apr-17 19:01N 53°06' E 008°44'0 0.0
2018-Apr-17 18:31N 53°06' E 008°44'0 0.0
2018-Apr-17 18:01N 53°06' E 008°44'0 0.0
2018-Apr-17 17:31N 53°06' E 008°44'0 0.0
2018-Apr-17 17:01N 53°06' E 008°44'0 0.0
2018-Apr-17 16:31N 53°06' E 008°44'0 0.0
2018-Apr-17 16:01N 53°06' E 008°44'0 0.0
2018-Apr-17 15:31N 53°06' E 008°44'0 0.0
2018-Apr-17 15:01N 53°06' E 008°44'0 0.0
2018-Apr-17 14:31N 53°06' E 008°44'0 0.0
2018-Apr-17 14:01N 53°06' E 008°44'0 0.0
2018-Apr-17 13:31N 53°06' E 008°44'0 0.0
2018-Apr-17 13:01N 53°06' E 008°44'0 0.0
2018-Apr-17 12:31N 53°06' E 008°44'0 0.0
2018-Apr-17 12:01N 53°06' E 008°44'0 0.0
2018-Apr-17 11:31N 53°06' E 008°44'0 0.0
2018-Apr-17 11:00N 53°06' E 008°44'1 2.2
2018-Apr-17 10:30N 53°07' E 008°43'5 9.0
2018-Apr-17 10:00N 53°10' E 008°37'4 8.1
2018-Apr-17 09:30N 53°12' E 008°31'5 9.4
2018-Apr-17 09:00N 53°16' E 008°29'5 9.5
2018-Apr-17 08:30N 53°21' E 008°30'510.2
2018-Apr-17 08:00N 53°26' E 008°30'510.4
2018-Apr-17 07:30N 53°31' E 008°32'3 5.7
2018-Apr-17 07:00N 53°34' E 008°33'510.0
2018-Apr-17 06:30N 53°38' E 008°27'510.6
2018-Apr-17 06:00N 53°41' E 008°21'611.0
2018-Apr-17 05:30N 53°45' E 008°13'510.9
2018-Apr-17 05:00N 53°49' E 008°07'611.3
2018-Apr-17 04:30N 53°51' E 007°59'4 7.6
2018-Apr-17 03:58N 53°55' E 007°55'613.2
2018-Apr-17 03:31N 53°58' E 008°04'713.4
2018-Apr-17 03:00N 53°59' E 008°15'815.0
2018-Apr-17 02:29N 53°59' E 008°28'714.4
2018-Apr-17 02:01N 53°56' E 008°39'612.7
2018-Apr-17 01:30N 53°51' E 008°46'510.9
2018-Apr-17 01:00N 53°51' E 008°55'511.0
2018-Apr-17 00:30N 53°52' E 009°04'3 6.6
2018-Apr-17 00:00N 53°54' E 009°09'0 0.0
2018-Apr-16 23:30N 53°54' E 009°09'1 1.7
2018-Apr-16 23:00N 53°54' E 009°10'3 6.5
2018-Apr-16 22:30N 53°57' E 009°14'4 8.1
2018-Apr-16 22:00N 54°00' E 009°18'4 7.2
2018-Apr-16 21:30N 54°04' E 009°19'4 8.1
2018-Apr-16 21:00N 54°08' E 009°20'3 6.5
2018-Apr-16 20:31N 54°10' E 009°24'4 7.6
2018-Apr-16 20:01N 54°11' E 009°30'4 7.4
2018-Apr-16 19:31N 54°13' E 009°35'4 7.8
2018-Apr-16 19:01N 54°17' E 009°38'4 7.1
2018-Apr-16 18:31N 54°19' E 009°43'4 8.0
2018-Apr-16 18:00N 54°22' E 009°47'21 5.9
2018-Apr-16 14:31N 54°30' E 010°20'712.9
2018-Apr-16 14:00N 54°32' E 010°30'612.7
2018-Apr-16 13:31N 54°33' E 010°41'612.7
2018-Apr-16 13:01N 54°33' E 010°52'712.6
2018-Apr-16 12:28N 54°34' E 011°04'613.1
2018-Apr-16 12:00N 54°33' E 011°14'612.6
2018-Apr-16 11:30N 54°31' E 011°24'611.9
2018-Apr-16 11:00N 54°30' E 011°34'612.8
2018-Apr-16 10:31N 54°28' E 011°45'912.6
2018-Apr-16 09:49N 54°27' E 011°60'412.6
2018-Apr-16 09:30N 54°27' E 012°06'611.5
2018-Apr-16 09:00N 54°32' E 012°12'612.2
2018-Apr-16 08:30N 54°37' E 012°17'5812.8
2018-Apr-16 03:59N 55°02' E 013°48'1012.9
2018-Apr-16 03:11N 55°06' E 014°04'513.0
2018-Apr-16 02:46N 55°10' E 014°11'613.1
2018-Apr-16 02:21N 55°13' E 014°18'513.1
2018-Apr-16 01:57N 55°17' E 014°24'613.4
2018-Apr-16 01:30N 55°22' E 014°31'713.2
2018-Apr-16 01:00N 55°26' E 014°39'612.9
2018-Apr-16 00:31N 55°30' E 014°49'612.9
2018-Apr-16 00:01N 55°33' E 014°59'712.9
2018-Apr-15 23:30N 55°36' E 015°09'612.9
2018-Apr-15 23:01N 55°40' E 015°18'612.8
2018-Apr-15 22:30N 55°43' E 015°28'713.0
2018-Apr-15 22:00N 55°47' E 015°38'713.1
2018-Apr-15 21:30N 55°50' E 015°47'713.1
2018-Apr-15 21:01N 55°54' E 015°57'713.2
2018-Apr-15 20:31N 55°57' E 016°07'713.1
2018-Apr-15 20:01N 56°01' E 016°17'713.1
2018-Apr-15 19:31N 56°04' E 016°27'713.0
2018-Apr-15 19:01N 56°08' E 016°37'2712.7
2018-Apr-15 16:51N 56°32' E 016°60'20612.6
2018-Apr-15 00:28N 59°35' E 019°58'612.8
2018-Apr-15 00:00N 59°40' E 019°52'612.8
2018-Apr-14 23:30N 59°45' E 019°44'613.0
2018-Apr-14 23:01N 59°50' E 019°35'713.0
2018-Apr-14 22:30N 59°55' E 019°27'713.0
2018-Apr-14 22:00N 60°00' E 019°19'612.8
2018-Apr-14 21:31N 60°05' E 019°11'712.9
2018-Apr-14 21:00N 60°10' E 019°03'612.5
2018-Apr-14 20:31N 60°16' E 019°01'612.6
2018-Apr-14 20:00N 60°23' E 018°59'612.3
2018-Apr-14 19:30N 60°29' E 018°59'  

Dump ship's entire track history